sensor_id;sensor_type;location;lat;lon;timestamp;pressure;altitude;pressure_sealevel;temperature;humidity
76156;BME280;64906;51.290;7.348;2023-11-22T00:02:23;99552.38;;;20.56;44.88
76156;BME280;64906;51.290;7.348;2023-11-22T00:04:54;99547.97;;;20.55;45.10
76156;BME280;64906;51.290;7.348;2023-11-22T00:07:20;99548.25;;;20.53;45.12
76156;BME280;64906;51.290;7.348;2023-11-22T00:09:46;99546.34;;;20.54;45.10
76156;BME280;64906;51.290;7.348;2023-11-22T00:12:12;99554.00;;;20.52;45.14
76156;BME280;64906;51.290;7.348;2023-11-22T00:14:38;99555.66;;;20.53;45.16
76156;BME280;64906;51.290;7.348;2023-11-22T00:17:04;99553.75;;;20.53;44.85
76156;BME280;64906;51.290;7.348;2023-11-22T00:19:29;99543.03;;;20.47;45.01
76156;BME280;64906;51.290;7.348;2023-11-22T00:21:56;99547.97;;;20.50;45.25
76156;BME280;64906;51.290;7.348;2023-11-22T00:24:21;99554.28;;;20.50;44.95
76156;BME280;64906;51.290;7.348;2023-11-22T00:26:46;99549.88;;;20.49;44.75
76156;BME280;64906;51.290;7.348;2023-11-22T00:29:11;99557.59;;;20.47;45.16
76156;BME280;64906;51.290;7.348;2023-11-22T00:31:37;99563.06;;;20.47;45.16
76156;BME280;64906;51.290;7.348;2023-11-22T00:34:02;99574.03;;;20.47;44.72
76156;BME280;64906;51.290;7.348;2023-11-22T00:36:27;99580.59;;;20.46;44.84
76156;BME280;64906;51.290;7.348;2023-11-22T00:38:54;99577.06;;;20.46;44.84
76156;BME280;64906;51.290;7.348;2023-11-22T00:41:19;99574.59;;;20.44;44.98
76156;BME280;64906;51.290;7.348;2023-11-22T00:43:45;99570.47;;;20.42;44.82
76156;BME280;64906;51.290;7.348;2023-11-22T00:46:11;99570.47;;;20.42;44.82
76156;BME280;64906;51.290;7.348;2023-11-22T00:48:36;99577.06;;;20.41;44.99
76156;BME280;64906;51.290;7.348;2023-11-22T00:51:02;99578.69;;;20.42;44.82
76156;BME280;64906;51.290;7.348;2023-11-22T00:53:33;99578.13;;;20.45;44.90
76156;BME280;64906;51.290;7.348;2023-11-22T00:55:58;99568.00;;;20.40;44.78
76156;BME280;64906;51.290;7.348;2023-11-22T00:58:23;99574.84;;;20.43;45.17
76156;BME280;64906;51.290;7.348;2023-11-22T01:00:49;99570.47;;;20.42;45.07
76156;BME280;64906;51.290;7.348;2023-11-22T01:03:14;99578.97;;;20.35;44.99
76156;BME280;64906;51.290;7.348;2023-11-22T01:05:39;99580.88;;;20.35;44.81
76156;BME280;64906;51.290;7.348;2023-11-22T01:08:05;99576.78;;;20.37;45.10
76156;BME280;64906;51.290;7.348;2023-11-22T01:10:30;99579.22;;;20.34;45.03
76156;BME280;64906;51.290;7.348;2023-11-22T01:12:56;99586.34;;;20.35;45.21
76156;BME280;64906;51.290;7.348;2023-11-22T01:15:21;99583.88;;;20.33;44.86
76156;BME280;64906;51.290;7.348;2023-11-22T01:17:46;99597.31;;;20.35;44.90
76156;BME280;64906;51.290;7.348;2023-11-22T01:20:12;99590.75;;;20.31;45.15
76156;BME280;64906;51.290;7.348;2023-11-22T01:22:39;99600.91;;;20.35;44.91
76156;BME280;64906;51.290;7.348;2023-11-22T01:25:05;99598.69;;;20.32;45.02
76156;BME280;64906;51.290;7.348;2023-11-22T01:27:30;99594.84;;;20.33;44.76
76156;BME280;64906;51.290;7.348;2023-11-22T01:29:55;99589.34;;;20.28;44.77
76156;BME280;64906;51.290;7.348;2023-11-22T01:32:21;99588.00;;;20.26;44.80
76156;BME280;64906;51.290;7.348;2023-11-22T01:34:46;99602.28;;;20.28;44.92
76156;BME280;64906;51.290;7.348;2023-11-22T01:37:12;99607.19;;;20.26;44.71
76156;BME280;64906;51.290;7.348;2023-11-22T01:39:41;99597.06;;;20.26;44.90
76156;BME280;64906;51.290;7.348;2023-11-22T01:42:07;99597.84;;;20.22;44.71
76156;BME280;64906;51.290;7.348;2023-11-22T01:44:32;99605.56;;;20.25;44.90
76156;BME280;64906;51.290;7.348;2023-11-22T01:46:58;99609.38;;;20.24;45.04
76156;BME280;64906;51.290;7.348;2023-11-22T01:49:23;99613.22;;;20.23;45.05
76156;BME280;64906;51.290;7.348;2023-11-22T01:51:49;99619.25;;;20.25;45.12
76156;BME280;64906;51.290;7.348;2023-11-22T01:54:15;99629.66;;;20.23;45.05
76156;BME280;64906;51.290;7.348;2023-11-22T01:56:42;99639.25;;;20.20;45.14
76156;BME280;64906;51.290;7.348;2023-11-22T01:59:07;99628.00;;;20.22;44.71
76156;BME280;64906;51.290;7.348;2023-11-22T02:01:33;99631.31;;;20.24;44.81
76156;BME280;64906;51.290;7.348;2023-11-22T02:03:58;99634.88;;;20.24;44.72
76156;BME280;64906;51.290;7.348;2023-11-22T02:06:24;99639.25;;;20.25;44.96
76156;BME280;64906;51.290;7.348;2023-11-22T02:08:49;99637.06;;;20.22;45.02
76156;BME280;64906;51.290;7.348;2023-11-22T02:11:17;99641.44;;;20.23;44.79
76156;BME280;64906;51.290;7.348;2023-11-22T02:13:50;99646.41;;;20.21;44.80
76156;BME280;64906;51.290;7.348;2023-11-22T02:16:19;99647.47;;;20.20;44.99
76156;BME280;64906;51.290;7.348;2023-11-22T02:18:45;99646.09;;;20.18;44.97
76156;BME280;64906;51.290;7.348;2023-11-22T02:21:11;99647.13;;;20.12;45.22
76156;BME280;64906;51.290;7.348;2023-11-22T02:23:36;99647.97;;;20.12;44.92
76156;BME280;64906;51.290;7.348;2023-11-22T02:26:02;99655.91;;;20.14;44.85
76156;BME280;64906;51.290;7.348;2023-11-22T02:28:27;99647.69;;;20.08;44.97
76156;BME280;64906;51.290;7.348;2023-11-22T02:30:53;99652.88;;;20.10;45.02
76156;BME280;64906;51.290;7.348;2023-11-22T02:33:19;99649.34;;;20.10;44.96
76156;BME280;64906;51.290;7.348;2023-11-22T02:35:45;99661.34;;;20.03;45.28
76156;BME280;64906;51.290;7.348;2023-11-22T02:38:10;99665.47;;;20.01;45.35
76156;BME280;64906;51.290;7.348;2023-11-22T02:40:35;99666.31;;;20.01;45.32
76156;BME280;64906;51.290;7.348;2023-11-22T02:43:01;99665.22;;;20.08;45.37
76156;BME280;64906;51.290;7.348;2023-11-22T02:45:30;99654.81;;;20.04;44.98
76156;BME280;64906;51.290;7.348;2023-11-22T02:47:56;99660.81;;;20.01;45.10
76156;BME280;64906;51.290;7.348;2023-11-22T02:50:21;99654.22;;;19.97;45.34
76156;BME280;64906;51.290;7.348;2023-11-22T02:52:47;99658.59;;;19.98;45.06
76156;BME280;64906;51.290;7.348;2023-11-22T02:55:12;99652.59;;;19.96;45.17
76156;BME280;64906;51.290;7.348;2023-11-22T02:57:38;99654.50;;;19.96;45.09
76156;BME280;64906;51.290;7.348;2023-11-22T03:00:07;99655.31;;;19.96;45.10
76156;BME280;64906;51.290;7.348;2023-11-22T03:02:33;99652.03;;;19.94;45.07
76156;BME280;64906;51.290;7.348;2023-11-22T03:04:59;99655.88;;;19.93;45.24
76156;BME280;64906;51.290;7.348;2023-11-22T03:07:27;99652.03;;;19.94;45.26
76156;BME280;64906;51.290;7.348;2023-11-22T03:09:53;99648.16;;;19.90;45.22
76156;BME280;64906;51.290;7.348;2023-11-22T03:12:19;99653.94;;;19.94;45.20
76156;BME280;64906;51.290;7.348;2023-11-22T03:14:57;99661.34;;;19.93;45.16
76156;BME280;64906;51.290;7.348;2023-11-22T03:17:26;99675.06;;;19.93;45.45
76156;BME280;64906;51.290;7.348;2023-11-22T03:19:53;99675.84;;;19.94;45.25
76156;BME280;64906;51.290;7.348;2023-11-22T03:22:18;99677.50;;;19.90;45.03
76156;BME280;64906;51.290;7.348;2023-11-22T03:24:44;99688.19;;;19.91;45.13
76156;BME280;64906;51.290;7.348;2023-11-22T03:27:10;99679.66;;;19.88;45.13
76156;BME280;64906;51.290;7.348;2023-11-22T03:29:35;99687.06;;;19.87;45.01
76156;BME280;64906;51.290;7.348;2023-11-22T03:32:00;99690.91;;;19.86;45.27
76156;BME280;64906;51.290;7.348;2023-11-22T03:34:26;99694.72;;;19.85;45.07
76156;BME280;64906;51.290;7.348;2023-11-22T03:36:51;99700.75;;;19.87;45.26
76156;BME280;64906;51.290;7.348;2023-11-22T03:39:17;99698.56;;;19.84;45.27
76156;BME280;64906;51.290;7.348;2023-11-22T03:41:42;99704.88;;;19.85;45.36
76156;BME280;64906;51.290;7.348;2023-11-22T03:44:08;99700.47;;;19.84;45.26
76156;BME280;64906;51.290;7.348;2023-11-22T03:46:35;99702.94;;;19.85;45.04
76156;BME280;64906;51.290;7.348;2023-11-22T03:49:01;99703.19;;;19.84;45.05
76156;BME280;64906;51.290;7.348;2023-11-22T03:51:28;99713.91;;;19.85;45.38
76156;BME280;64906;51.290;7.348;2023-11-22T03:53:53;99710.63;;;19.83;45.26
76156;BME280;64906;51.290;7.348;2023-11-22T03:56:18;99715.25;;;19.83;45.39
76156;BME280;64906;51.290;7.348;2023-11-22T03:58:44;99719.34;;;19.80;45.08
76156;BME280;64906;51.290;7.348;2023-11-22T04:01:09;99723.75;;;19.81;45.19
76156;BME280;64906;51.290;7.348;2023-11-22T04:03:34;99715.50;;;19.76;45.50
76156;BME280;64906;51.290;7.348;2023-11-22T04:06:00;99730.84;;;19.77;45.19
76156;BME280;64906;51.290;7.348;2023-11-22T04:08:25;99744.00;;;19.80;45.13
76156;BME280;64906;51.290;7.348;2023-11-22T04:10:50;99747.28;;;19.77;45.45
76156;BME280;64906;51.290;7.348;2023-11-22T04:13:15;99761.50;;;19.74;45.18
76156;BME280;64906;51.290;7.348;2023-11-22T04:15:41;99774.13;;;19.75;45.13
76156;BME280;64906;51.290;7.348;2023-11-22T04:18:06;99779.84;;;19.74;45.05
76156;BME280;64906;51.290;7.348;2023-11-22T04:20:31;99784.25;;;19.75;45.05
76156;BME280;64906;51.290;7.348;2023-11-22T04:22:57;99784.25;;;19.75;45.30
76156;BME280;64906;51.290;7.348;2023-11-22T04:25:22;99797.13;;;19.74;45.31
76156;BME280;64906;51.290;7.348;2023-11-22T04:27:48;99788.59;;;19.71;45.03
76156;BME280;64906;51.290;7.348;2023-11-22T04:30:14;99790.81;;;19.69;45.36
76156;BME280;64906;51.290;7.348;2023-11-22T04:32:40;99782.81;;;19.67;45.42
76156;BME280;64906;51.290;7.348;2023-11-22T04:35:09;99795.44;;;19.68;45.05
76156;BME280;64906;51.290;7.348;2023-11-22T04:37:35;99796.28;;;19.69;45.22
76156;BME280;64906;51.290;7.348;2023-11-22T04:40:01;99789.97;;;19.68;45.47
76156;BME280;64906;51.290;7.348;2023-11-22T04:42:28;99777.59;;;19.66;45.15
76156;BME280;64906;51.290;7.348;2023-11-22T04:44:54;99776.78;;;19.60;45.26
76156;BME280;64906;51.290;7.348;2023-11-22T04:47:19;99785.03;;;19.65;45.17
76156;BME280;64906;51.290;7.348;2023-11-22T04:49:47;99786.94;;;19.65;45.02
76156;BME280;64906;51.290;7.348;2023-11-22T04:52:12;99785.56;;;19.62;45.25
76156;BME280;64906;51.290;7.348;2023-11-22T04:54:37;99773.50;;;19.63;45.25
76156;BME280;64906;51.290;7.348;2023-11-22T04:57:03;99773.75;;;19.62;45.27
76156;BME280;64906;51.290;7.348;2023-11-22T04:59:29;99766.38;;;19.62;45.04
76156;BME280;64906;51.290;7.348;2023-11-22T05:01:54;99772.41;;;19.64;45.33
76156;BME280;64906;51.290;7.348;2023-11-22T05:04:19;99765.81;;;19.60;44.95
76156;BME280;64906;51.290;7.348;2023-11-22T05:06:45;99760.34;;;19.60;45.00
76156;BME280;64906;51.290;7.348;2023-11-22T05:09:11;99755.44;;;19.62;45.53
76156;BME280;64906;51.290;7.348;2023-11-22T05:11:38;99771.28;;;19.60;45.12
76156;BME280;64906;51.290;7.348;2023-11-22T05:14:03;99776.78;;;19.60;45.21
76156;BME280;64906;51.290;7.348;2023-11-22T05:16:28;99788.53;;;19.61;45.42
76156;BME280;64906;51.290;7.348;2023-11-22T05:18:53;99797.59;;;19.61;45.55
76156;BME280;64906;51.290;7.348;2023-11-22T05:21:19;99785.78;;;19.61;45.40
76156;BME280;64906;51.290;7.348;2023-11-22T05:23:44;99798.09;;;19.58;45.31
76156;BME280;64906;51.290;7.348;2023-11-22T05:26:09;99806.91;;;19.60;45.43
76156;BME280;64906;51.290;7.348;2023-11-22T05:28:34;99814.28;;;19.60;45.52
76156;BME280;64906;51.290;7.348;2023-11-22T05:31:00;99812.63;;;19.59;45.01
76156;BME280;64906;51.290;7.348;2023-11-22T05:33:25;99820.59;;;19.60;45.43
76156;BME280;64906;51.290;7.348;2023-11-22T05:35:50;99814.53;;;19.58;45.55
76156;BME280;64906;51.290;7.348;2023-11-22T05:38:15;99825.81;;;19.62;45.26
76156;BME280;64906;51.290;7.348;2023-11-22T05:40:41;99838.38;;;19.58;45.57
76156;BME280;64906;51.290;7.348;2023-11-22T05:43:08;99833.72;;;19.58;45.44
76156;BME280;64906;51.290;7.348;2023-11-22T05:45:33;99838.38;;;19.58;45.62
76156;BME280;64906;51.290;7.348;2023-11-22T05:47:59;99842.50;;;19.60;45.58
76156;BME280;64906;51.290;7.348;2023-11-22T05:50:24;99839.19;;;19.58;45.50
76156;BME280;64906;51.290;7.348;2023-11-22T05:52:49;99839.78;;;19.60;45.65
76156;BME280;64906;51.290;7.348;2023-11-22T05:55:14;99837.56;;;19.57;45.53
76156;BME280;64906;51.290;7.348;2023-11-22T05:57:40;99837.25;;;19.54;45.98
76156;BME280;64906;51.290;7.348;2023-11-22T06:00:07;99843.53;;;19.54;46.10
76156;BME280;64906;51.290;7.348;2023-11-22T06:02:33;99847.41;;;19.58;45.73
76156;BME280;64906;51.290;7.348;2023-11-22T06:04:58;99848.78;;;19.61;45.64
76156;BME280;64906;51.290;7.348;2023-11-22T06:07:23;99834.28;;;19.60;45.68
76156;BME280;64906;51.290;7.348;2023-11-22T06:09:49;99832.63;;;19.59;45.83
76156;BME280;64906;51.290;7.348;2023-11-22T06:12:14;99841.41;;;19.61;45.99
76156;BME280;64906;51.290;7.348;2023-11-22T06:14:39;99829.06;;;19.59;45.69
76156;BME280;64906;51.290;7.348;2023-11-22T06:17:05;99832.13;;;19.62;45.92
76156;BME280;64906;51.290;7.348;2023-11-22T06:19:30;99835.94;;;19.61;46.13
76156;BME280;64906;51.290;7.348;2023-11-22T06:21:56;99835.34;;;19.59;46.08
76156;BME280;64906;51.290;7.348;2023-11-22T06:24:21;99840.84;;;19.59;45.89
76156;BME280;64906;51.290;7.348;2023-11-22T06:26:46;99835.97;;;19.66;45.90
76156;BME280;64906;51.290;7.348;2023-11-22T06:29:12;99840.06;;;19.64;46.21
76156;BME280;64906;51.290;7.348;2023-11-22T06:31:38;99838.13;;;19.64;46.20
76156;BME280;64906;51.290;7.348;2023-11-22T06:34:03;99855.16;;;19.66;46.09
76156;BME280;64906;51.290;7.348;2023-11-22T06:36:29;99859.28;;;19.69;45.91
76156;BME280;64906;51.290;7.348;2023-11-22T06:38:55;99852.97;;;19.68;46.10
76156;BME280;64906;51.290;7.348;2023-11-22T06:41:20;99851.88;;;19.69;45.87
76156;BME280;64906;51.290;7.348;2023-11-22T06:43:49;99852.72;;;19.70;46.05
76156;BME280;64906;51.290;7.348;2023-11-22T06:46:14;99849.97;;;19.70;45.94
76156;BME280;64906;51.290;7.348;2023-11-22T06:48:41;99854.09;;;19.72;46.33
76156;BME280;64906;51.290;7.348;2023-11-22T06:51:08;99855.19;;;19.71;46.13
76156;BME280;64906;51.290;7.348;2023-11-22T06:53:34;99854.63;;;19.69;46.30
76156;BME280;64906;51.290;7.348;2023-11-22T06:55:59;99849.16;;;19.69;46.48
76156;BME280;64906;51.290;7.348;2023-11-22T06:58:26;99847.22;;;19.70;46.27
76156;BME280;64906;51.290;7.348;2023-11-22T07:00:51;99851.94;;;19.74;46.53
76156;BME280;64906;51.290;7.348;2023-11-22T07:03:16;99850.03;;;19.75;46.31
76156;BME280;64906;51.290;7.348;2023-11-22T07:05:42;99858.25;;;19.75;46.27
76156;BME280;64906;51.290;7.348;2023-11-22T07:08:07;99851.94;;;19.74;45.84
76156;BME280;64906;51.290;7.348;2023-11-22T07:10:32;99856.34;;;19.75;46.50
76156;BME280;64906;51.290;7.348;2023-11-22T07:13:00;99866.47;;;19.75;46.34
76156;BME280;64906;51.290;7.348;2023-11-22T07:15:27;99863.44;;;19.76;46.14
76156;BME280;64906;51.290;7.348;2023-11-22T07:17:52;99862.63;;;19.76;46.27
76156;BME280;64906;51.290;7.348;2023-11-22T07:20:17;99868.94;;;19.76;46.45
76156;BME280;64906;51.290;7.348;2023-11-22T07:22:43;99867.28;;;19.75;46.35
76156;BME280;64906;51.290;7.348;2023-11-22T07:25:08;99881.53;;;19.77;46.54
76156;BME280;64906;51.290;7.348;2023-11-22T07:27:46;99887.31;;;19.81;46.35
76156;BME280;64906;51.290;7.348;2023-11-22T07:30:13;99881.84;;;19.81;46.12
76156;BME280;64906;51.290;7.348;2023-11-22T07:32:39;99892.81;;;19.81;46.40
76156;BME280;64906;51.290;7.348;2023-11-22T07:35:08;99906.25;;;19.82;46.11
76156;BME280;64906;51.290;7.348;2023-11-22T07:37:37;99913.06;;;19.80;46.35
76156;BME280;64906;51.290;7.348;2023-11-22T07:40:08;99917.19;;;19.82;46.14
76156;BME280;64906;51.290;7.348;2023-11-22T07:42:35;99927.59;;;19.80;46.42
76156;BME280;64906;51.290;7.348;2023-11-22T07:45:01;99936.38;;;19.82;46.56
76156;BME280;64906;51.290;7.348;2023-11-22T07:47:27;99940.78;;;19.83;46.48
76156;BME280;64906;51.290;7.348;2023-11-22T07:49:53;99949.31;;;19.87;46.72
76156;BME280;64906;51.290;7.348;2023-11-22T07:52:21;99944.59;;;19.82;46.68
76156;BME280;64906;51.290;7.348;2023-11-22T07:54:46;99947.97;;;19.89;46.60
76156;BME280;64906;51.290;7.348;2023-11-22T07:57:13;99936.69;;;19.86;46.61
76156;BME280;64906;51.290;7.348;2023-11-22T07:59:39;99931.50;;;19.89;46.37
76156;BME280;64906;51.290;7.348;2023-11-22T08:02:05;99933.41;;;19.89;46.25
76156;BME280;64906;51.290;7.348;2023-11-22T08:04:36;99930.41;;;19.90;46.30
76156;BME280;64906;51.290;7.348;2023-11-22T08:07:02;99923.59;;;19.93;46.46
76156;BME280;64906;51.290;7.348;2023-11-22T08:09:28;99913.97;;;19.90;46.68
76156;BME280;64906;51.290;7.348;2023-11-22T08:11:58;99901.94;;;19.91;46.69
76156;BME280;64906;51.290;7.348;2023-11-22T08:14:23;99887.41;;;19.91;46.72
76156;BME280;64906;51.290;7.348;2023-11-22T08:16:50;99878.66;;;19.94;46.50
76156;BME280;64906;51.290;7.348;2023-11-22T08:19:15;99879.50;;;19.94;46.47
76156;BME280;64906;51.290;7.348;2023-11-22T08:21:41;99881.13;;;19.95;46.50
76156;BME280;64906;51.290;7.348;2023-11-22T08:24:07;99884.41;;;19.92;46.56
76156;BME280;64906;51.290;7.348;2023-11-22T08:26:32;99889.66;;;19.99;46.82
76156;BME280;64906;51.290;7.348;2023-11-22T08:28:58;99889.97;;;20.02;46.47
76156;BME280;64906;51.290;7.348;2023-11-22T08:31:23;99885.56;;;20.01;46.99
76156;BME280;64906;51.290;7.348;2023-11-22T08:33:48;99891.31;;;20.00;46.68
76156;BME280;64906;51.290;7.348;2023-11-22T08:36:14;99887.50;;;20.01;46.81
76156;BME280;64906;51.290;7.348;2023-11-22T08:38:39;99899.81;;;20.03;46.83
76156;BME280;64906;51.290;7.348;2023-11-22T08:41:07;99915.78;;;20.07;46.81
76156;BME280;64906;51.290;7.348;2023-11-22T08:43:34;99925.91;;;20.06;46.81
76156;BME280;64906;51.290;7.348;2023-11-22T08:46:01;99939.34;;;20.08;46.73
76156;BME280;64906;51.290;7.348;2023-11-22T08:48:30;99963.75;;;20.09;46.75
76156;BME280;64906;51.290;7.348;2023-11-22T08:51:10;99958.00;;;20.11;46.50
76156;BME280;64906;51.290;7.348;2023-11-22T08:53:36;99973.34;;;20.12;46.85
76156;BME280;64906;51.290;7.348;2023-11-22T08:56:02;99980.47;;;20.08;46.63
76156;BME280;64906;51.290;7.348;2023-11-22T08:58:30;99990.31;;;20.08;46.51
76156;BME280;64906;51.290;7.348;2023-11-22T09:00:56;99992.81;;;20.10;46.74
76156;BME280;64906;51.290;7.348;2023-11-22T09:03:23;99985.41;;;20.11;46.88
76156;BME280;64906;51.290;7.348;2023-11-22T09:05:49;99988.72;;;20.13;46.81
76156;BME280;64906;51.290;7.348;2023-11-22T09:08:14;99990.38;;;20.14;46.70
76156;BME280;64906;51.290;7.348;2023-11-22T09:10:41;99998.09;;;20.17;46.80
76156;BME280;64906;51.290;7.348;2023-11-22T09:13:08;99987.63;;;20.14;46.73
76156;BME280;64906;51.290;7.348;2023-11-22T09:15:33;99994.59;;;20.21;46.82
76156;BME280;64906;51.290;7.348;2023-11-22T09:18:00;99993.72;;;20.16;46.62
76156;BME280;64906;51.290;7.348;2023-11-22T09:20:25;99983.91;;;20.20;46.49
76156;BME280;64906;51.290;7.348;2023-11-22T09:22:54;99968.25;;;20.20;46.79
76156;BME280;64906;51.290;7.348;2023-11-22T09:25:21;99962.50;;;20.22;46.79
76156;BME280;64906;51.290;7.348;2023-11-22T09:27:50;99967.72;;;20.23;46.38
76156;BME280;64906;51.290;7.348;2023-11-22T09:30:25;99971.81;;;20.21;46.40
76156;BME280;64906;51.290;7.348;2023-11-22T09:33:11;99978.44;;;20.25;46.82
76156;BME280;64906;51.290;7.348;2023-11-22T09:35:40;99974.03;;;20.24;46.49
76156;BME280;64906;51.290;7.348;2023-11-22T09:38:07;99971.31;;;20.24;46.59
76156;BME280;64906;51.290;7.348;2023-11-22T09:40:45;99957.91;;;20.27;46.65
76156;BME280;64906;51.290;7.348;2023-11-22T09:43:12;99954.88;;;20.29;46.51
76156;BME280;64906;51.290;7.348;2023-11-22T09:45:40;99960.09;;;20.30;46.26
76156;BME280;64906;51.290;7.348;2023-11-22T09:48:19;99947.22;;;20.31;46.33
76156;BME280;64906;51.290;7.348;2023-11-22T09:51:00;99943.13;;;20.33;46.36
76156;BME280;64906;51.290;7.348;2023-11-22T09:53:33;99938.72;;;20.32;46.34
76156;BME280;64906;51.290;7.348;2023-11-22T09:55:59;99951.09;;;20.35;46.13
76156;BME280;64906;51.290;7.348;2023-11-22T09:58:31;99950.00;;;20.36;46.13
76156;BME280;64906;51.290;7.348;2023-11-22T10:00:59;99946.69;;;20.34;46.33
76156;BME280;64906;51.290;7.348;2023-11-22T10:03:26;99952.50;;;20.37;45.95
76156;BME280;64906;51.290;7.348;2023-11-22T10:05:55;99949.75;;;20.37;46.01
76156;BME280;64906;51.290;7.348;2023-11-22T10:08:21;99960.44;;;20.39;45.78
76156;BME280;64906;51.290;7.348;2023-11-22T10:10:49;99959.63;;;20.38;46.04
76156;BME280;64906;51.290;7.348;2023-11-22T10:13:17;99947.31;;;20.41;46.18
76156;BME280;64906;51.290;7.348;2023-11-22T10:15:45;99943.16;;;20.38;45.82
76156;BME280;64906;51.290;7.348;2023-11-22T10:18:13;99954.44;;;20.42;46.09
76156;BME280;64906;51.290;7.348;2023-11-22T10:20:44;99950.59;;;20.43;46.03
76156;BME280;64906;51.290;7.348;2023-11-22T10:23:17;99953.31;;;20.43;45.60
76156;BME280;64906;51.290;7.348;2023-11-22T10:25:47;99952.25;;;20.44;46.02
76156;BME280;64906;51.290;7.348;2023-11-22T10:28:15;99954.44;;;20.42;45.79
76156;BME280;64906;51.290;7.348;2023-11-22T10:30:42;99953.91;;;20.45;45.74
76156;BME280;64906;51.290;7.348;2023-11-22T10:33:11;99961.06;;;20.46;45.80
76156;BME280;64906;51.290;7.348;2023-11-22T10:35:47;99956.63;;;20.45;45.89
76156;BME280;64906;51.290;7.348;2023-11-22T10:38:14;99956.91;;;20.43;45.74
76156;BME280;64906;51.290;7.348;2023-11-22T10:40:39;99954.19;;;20.48;45.40
76156;BME280;64906;51.290;7.348;2023-11-22T10:43:06;99958.84;;;20.48;45.60
76156;BME280;64906;51.290;7.348;2023-11-22T10:45:33;99952.81;;;20.46;45.77
76156;BME280;64906;51.290;7.348;2023-11-22T10:48:00;99952.56;;;20.47;45.63
76156;BME280;64906;51.290;7.348;2023-11-22T10:50:25;99956.69;;;20.50;45.67
76156;BME280;64906;51.290;7.348;2023-11-22T10:52:52;99961.31;;;20.49;45.70
76156;BME280;64906;51.290;7.348;2023-11-22T10:55:20;99965.47;;;20.52;45.98
76156;BME280;64906;51.290;7.348;2023-11-22T10:57:49;99956.97;;;20.53;45.43
76156;BME280;64906;51.290;7.348;2023-11-22T11:00:19;99947.09;;;20.52;45.48
76156;BME280;64906;51.290;7.348;2023-11-22T11:02:52;99958.63;;;20.54;45.76
76156;BME280;64906;51.290;7.348;2023-11-22T11:05:21;99947.66;;;20.54;45.44
76156;BME280;64906;51.290;7.348;2023-11-22T11:07:54;99954.81;;;20.55;45.21
76156;BME280;64906;51.290;7.348;2023-11-22T11:10:23;99942.44;;;20.53;45.32
76156;BME280;64906;51.290;7.348;2023-11-22T11:12:50;99954.81;;;20.55;45.22
76156;BME280;64906;51.290;7.348;2023-11-22T11:15:16;99956.44;;;20.56;45.58
76156;BME280;64906;51.290;7.348;2023-11-22T11:17:44;99956.72;;;20.55;45.38
76156;BME280;64906;51.290;7.348;2023-11-22T11:20:10;99960.03;;;20.57;45.12
76156;BME280;64906;51.290;7.348;2023-11-22T11:22:39;99958.91;;;20.58;45.04
76156;BME280;64906;51.290;7.348;2023-11-22T11:25:05;99957.00;;;20.58;45.03
76156;BME280;64906;51.290;7.348;2023-11-22T11:27:34;99949.63;;;20.59;45.37
76156;BME280;64906;51.290;7.348;2023-11-22T11:30:42;99956.75;;;20.60;45.38
76156;BME280;64906;51.290;7.348;2023-11-22T11:33:08;99952.91;;;20.61;45.10
76156;BME280;64906;51.290;7.348;2023-11-22T11:35:46;99943.59;;;20.62;45.47
76156;BME280;64906;51.290;7.348;2023-11-22T11:38:13;99933.97;;;20.59;45.22
76156;BME280;64906;51.290;7.348;2023-11-22T11:40:44;99939.75;;;20.63;44.88
76156;BME280;64906;51.290;7.348;2023-11-22T11:43:10;99938.69;;;20.64;45.29
76156;BME280;64906;51.290;7.348;2023-11-22T11:45:41;99918.34;;;20.60;44.93
76156;BME280;64906;51.290;7.348;2023-11-22T11:48:13;99914.25;;;20.62;45.20
76156;BME280;64906;51.290;7.348;2023-11-22T11:50:39;99920.28;;;20.64;45.16
76156;BME280;64906;51.290;7.348;2023-11-22T11:53:05;99941.41;;;20.64;45.17
76156;BME280;64906;51.290;7.348;2023-11-22T11:55:31;99939.47;;;20.64;45.25
76156;BME280;64906;51.290;7.348;2023-11-22T11:57:57;99934.25;;;20.63;45.01
76156;BME280;64906;51.290;7.348;2023-11-22T12:00:29;99917.53;;;20.64;45.04
76156;BME280;64906;51.290;7.348;2023-11-22T12:02:54;99924.16;;;20.68;45.10
76156;BME280;64906;51.290;7.348;2023-11-22T12:05:21;99919.72;;;20.67;44.97
76156;BME280;64906;51.290;7.348;2023-11-22T12:07:46;99918.94;;;20.67;44.79
76156;BME280;64906;51.290;7.348;2023-11-22T12:10:12;99913.16;;;20.63;44.58
76156;BME280;64906;51.290;7.348;2023-11-22T12:12:38;99900.00;;;20.65;44.92
76156;BME280;64906;51.290;7.348;2023-11-22T12:15:04;99883.78;;;20.59;44.97
76156;BME280;64906;51.290;7.348;2023-11-22T12:17:31;99879.34;;;20.58;44.99
76156;BME280;64906;51.290;7.348;2023-11-22T12:20:15;99871.44;;;20.61;44.90
76156;BME280;64906;51.290;7.348;2023-11-22T12:22:43;99851.16;;;20.62;44.53
76156;BME280;64906;51.290;7.348;2023-11-22T12:25:10;99828.91;;;20.59;44.54
76156;BME280;64906;51.290;7.348;2023-11-22T12:27:42;99828.94;;;20.64;44.93
76156;BME280;64906;51.290;7.348;2023-11-22T12:30:08;99814.09;;;20.65;44.66
76156;BME280;64906;51.290;7.348;2023-11-22T12:32:38;99806.13;;;20.63;44.88
76156;BME280;64906;51.290;7.348;2023-11-22T12:35:04;99800.09;;;20.61;44.53
76156;BME280;64906;51.290;7.348;2023-11-22T12:37:32;99806.13;;;20.63;44.51
76156;BME280;64906;51.290;7.348;2023-11-22T12:39:57;99805.88;;;20.65;44.87
76156;BME280;64906;51.290;7.348;2023-11-22T12:42:22;99788.56;;;20.64;44.88
76156;BME280;64906;51.290;7.348;2023-11-22T12:44:51;99791.31;;;20.64;44.69
76156;BME280;64906;51.290;7.348;2023-11-22T12:47:35;99794.91;;;20.65;44.54
76156;BME280;64906;51.290;7.348;2023-11-22T12:50:01;99797.63;;;20.65;44.52
76156;BME280;64906;51.290;7.348;2023-11-22T12:52:29;99798.47;;;20.65;44.89
76156;BME280;64906;51.290;7.348;2023-11-22T12:54:54;99782.81;;;20.66;44.54
76156;BME280;64906;51.290;7.348;2023-11-22T12:57:19;99788.56;;;20.64;44.56
76156;BME280;64906;51.290;7.348;2023-11-22T12:59:45;99799.28;;;20.66;44.44